sensor_id;sensor_type;location;lat;lon;timestamp;P1;durP1;ratioP1;P2;durP2;ratioP2
43114;SDS011;28727;50.068;14.452;2023-04-15T00:01:18;3.92;;;2.60;;
43114;SDS011;28727;50.068;14.452;2023-04-15T00:03:51;3.40;;;2.50;;
43114;SDS011;28727;50.068;14.452;2023-04-15T00:06:24;3.55;;;2.40;;
43114;SDS011;28727;50.068;14.452;2023-04-15T00:08:56;4.57;;;2.78;;
43114;SDS011;28727;50.068;14.452;2023-04-15T00:11:28;3.42;;;2.47;;
43114;SDS011;28727;50.068;14.452;2023-04-15T00:14:00;4.32;;;2.80;;
43114;SDS011;28727;50.068;14.452;2023-04-15T00:16:32;3.33;;;2.38;;
43114;SDS011;28727;50.068;14.452;2023-04-15T00:19:04;4.55;;;2.75;;
43114;SDS011;28727;50.068;14.452;2023-04-15T00:21:35;3.13;;;2.22;;
43114;SDS011;28727;50.068;14.452;2023-04-15T00:24:08;4.45;;;2.63;;
43114;SDS011;28727;50.068;14.452;2023-04-15T00:26:39;4.85;;;3.45;;
43114;SDS011;28727;50.068;14.452;2023-04-15T00:29:11;3.38;;;2.30;;
43114;SDS011;28727;50.068;14.452;2023-04-15T00:31:43;3.20;;;2.17;;
43114;SDS011;28727;50.068;14.452;2023-04-15T00:34:15;3.03;;;2.13;;
43114;SDS011;28727;50.068;14.452;2023-04-15T00:36:47;2.78;;;1.98;;
43114;SDS011;28727;50.068;14.452;2023-04-15T00:39:21;3.08;;;1.88;;
43114;SDS011;28727;50.068;14.452;2023-04-15T00:41:53;2.95;;;1.80;;
43114;SDS011;28727;50.068;14.452;2023-04-15T00:44:26;2.30;;;1.55;;
43114;SDS011;28727;50.068;14.452;2023-04-15T00:46:59;2.40;;;1.50;;
43114;SDS011;28727;50.068;14.452;2023-04-15T00:49:31;2.23;;;1.30;;
43114;SDS011;28727;50.068;14.452;2023-04-15T00:52:06;2.15;;;1.27;;
43114;SDS011;28727;50.068;14.452;2023-04-15T00:54:39;1.75;;;1.10;;
43114;SDS011;28727;50.068;14.452;2023-04-15T00:57:11;1.92;;;1.30;;
43114;SDS011;28727;50.068;14.452;2023-04-15T00:59:42;2.13;;;1.52;;
43114;SDS011;28727;50.068;14.452;2023-04-15T01:02:14;3.60;;;1.67;;
43114;SDS011;28727;50.068;14.452;2023-04-15T01:04:47;1.67;;;1.35;;
43114;SDS011;28727;50.068;14.452;2023-04-15T01:07:20;1.63;;;1.15;;
43114;SDS011;28727;50.068;14.452;2023-04-15T01:09:51;2.50;;;1.50;;
43114;SDS011;28727;50.068;14.452;2023-04-15T01:12:24;1.83;;;1.27;;
43114;SDS011;28727;50.068;14.452;2023-04-15T01:14:58;2.83;;;1.63;;
43114;SDS011;28727;50.068;14.452;2023-04-15T01:17:30;2.15;;;1.45;;
43114;SDS011;28727;50.068;14.452;2023-04-15T01:20:03;2.47;;;1.40;;
43114;SDS011;28727;50.068;14.452;2023-04-15T01:22:37;2.63;;;1.75;;
43114;SDS011;28727;50.068;14.452;2023-04-15T01:25:11;2.90;;;1.67;;
43114;SDS011;28727;50.068;14.452;2023-04-15T01:27:49;2.58;;;1.70;;
43114;SDS011;28727;50.068;14.452;2023-04-15T01:30:21;2.40;;;1.65;;
43114;SDS011;28727;50.068;14.452;2023-04-15T01:32:53;3.15;;;1.90;;
43114;SDS011;28727;50.068;14.452;2023-04-15T01:35:26;2.40;;;1.50;;
43114;SDS011;28727;50.068;14.452;2023-04-15T01:38:05;2.28;;;1.50;;
43114;SDS011;28727;50.068;14.452;2023-04-15T01:40:38;2.30;;;1.50;;
43114;SDS011;28727;50.068;14.452;2023-04-15T01:43:11;1.77;;;1.30;;
43114;SDS011;28727;50.068;14.452;2023-04-15T01:45:46;2.70;;;1.30;;
43114;SDS011;28727;50.068;14.452;2023-04-15T01:48:18;1.40;;;1.20;;
43114;SDS011;28727;50.068;14.452;2023-04-15T01:50:51;1.73;;;1.40;;
43114;SDS011;28727;50.068;14.452;2023-04-15T01:53:24;2.03;;;1.20;;
43114;SDS011;28727;50.068;14.452;2023-04-15T01:55:56;1.65;;;1.30;;
43114;SDS011;28727;50.068;14.452;2023-04-15T01:58:28;1.73;;;1.30;;
43114;SDS011;28727;50.068;14.452;2023-04-15T02:01:00;1.90;;;1.30;;
43114;SDS011;28727;50.068;14.452;2023-04-15T02:03:35;2.08;;;1.50;;
43114;SDS011;28727;50.068;14.452;2023-04-15T02:06:07;2.22;;;1.55;;
43114;SDS011;28727;50.068;14.452;2023-04-15T02:08:39;2.72;;;1.60;;
43114;SDS011;28727;50.068;14.452;2023-04-15T02:11:12;1.70;;;1.50;;
43114;SDS011;28727;50.068;14.452;2023-04-15T02:13:44;1.88;;;1.52;;
43114;SDS011;28727;50.068;14.452;2023-04-15T02:16:17;2.22;;;1.40;;
43114;SDS011;28727;50.068;14.452;2023-04-15T02:18:50;2.80;;;1.60;;
43114;SDS011;28727;50.068;14.452;2023-04-15T02:21:22;2.75;;;1.50;;
43114;SDS011;28727;50.068;14.452;2023-04-15T02:23:54;2.08;;;1.50;;
43114;SDS011;28727;50.068;14.452;2023-04-15T02:26:26;2.83;;;1.30;;
43114;SDS011;28727;50.068;14.452;2023-04-15T02:28:59;2.47;;;1.30;;
43114;SDS011;28727;50.068;14.452;2023-04-15T02:31:31;2.35;;;1.30;;
43114;SDS011;28727;50.068;14.452;2023-04-15T02:34:07;2.78;;;1.63;;
43114;SDS011;28727;50.068;14.452;2023-04-15T02:36:39;2.08;;;1.58;;
43114;SDS011;28727;50.068;14.452;2023-04-15T02:39:11;2.50;;;1.65;;
43114;SDS011;28727;50.068;14.452;2023-04-15T02:41:45;1.43;;;1.13;;
43114;SDS011;28727;50.068;14.452;2023-04-15T02:44:22;2.95;;;1.30;;
43114;SDS011;28727;50.068;14.452;2023-04-15T02:46:59;1.88;;;1.17;;
43114;SDS011;28727;50.068;14.452;2023-04-15T02:49:35;1.45;;;1.00;;
43114;SDS011;28727;50.068;14.452;2023-04-15T02:52:08;2.13;;;1.30;;
43114;SDS011;28727;50.068;14.452;2023-04-15T02:54:40;2.03;;;1.25;;
43114;SDS011;28727;50.068;14.452;2023-04-15T02:57:12;2.08;;;1.50;;
43114;SDS011;28727;50.068;14.452;2023-04-15T02:59:44;1.98;;;1.30;;
43114;SDS011;28727;50.068;14.452;2023-04-15T03:02:17;2.30;;;1.70;;
43114;SDS011;28727;50.068;14.452;2023-04-15T03:04:53;1.98;;;1.45;;
43114;SDS011;28727;50.068;14.452;2023-04-15T03:07:25;2.35;;;1.30;;
43114;SDS011;28727;50.068;14.452;2023-04-15T03:09:57;1.70;;;1.30;;
43114;SDS011;28727;50.068;14.452;2023-04-15T03:12:29;1.20;;;1.02;;
43114;SDS011;28727;50.068;14.452;2023-04-15T03:15:02;1.88;;;1.40;;
43114;SDS011;28727;50.068;14.452;2023-04-15T03:17:40;3.10;;;1.52;;
43114;SDS011;28727;50.068;14.452;2023-04-15T03:20:12;1.85;;;1.20;;
43114;SDS011;28727;50.068;14.452;2023-04-15T03:22:44;2.65;;;1.50;;
43114;SDS011;28727;50.068;14.452;2023-04-15T03:25:16;3.42;;;1.67;;
43114;SDS011;28727;50.068;14.452;2023-04-15T03:27:56;2.13;;;1.60;;
43114;SDS011;28727;50.068;14.452;2023-04-15T03:30:27;2.67;;;1.70;;
43114;SDS011;28727;50.068;14.452;2023-04-15T03:32:59;2.42;;;1.60;;
43114;SDS011;28727;50.068;14.452;2023-04-15T03:35:31;3.55;;;1.50;;
43114;SDS011;28727;50.068;14.452;2023-04-15T03:38:03;2.45;;;1.55;;
43114;SDS011;28727;50.068;14.452;2023-04-15T03:40:35;2.72;;;1.90;;
43114;SDS011;28727;50.068;14.452;2023-04-15T03:43:07;2.20;;;1.67;;
43114;SDS011;28727;50.068;14.452;2023-04-15T03:45:38;2.42;;;1.80;;
43114;SDS011;28727;50.068;14.452;2023-04-15T03:48:10;3.08;;;2.30;;
43114;SDS011;28727;50.068;14.452;2023-04-15T03:50:48;4.80;;;2.85;;
43114;SDS011;28727;50.068;14.452;2023-04-15T03:53:20;3.85;;;2.83;;
43114;SDS011;28727;50.068;14.452;2023-04-15T03:55:52;3.90;;;3.35;;
43114;SDS011;28727;50.068;14.452;2023-04-15T03:58:24;4.97;;;3.63;;
43114;SDS011;28727;50.068;14.452;2023-04-15T04:00:55;9.50;;;8.32;;
43114;SDS011;28727;50.068;14.452;2023-04-15T04:03:27;13.15;;;11.75;;
43114;SDS011;28727;50.068;14.452;2023-04-15T04:05:59;6.60;;;5.15;;
43114;SDS011;28727;50.068;14.452;2023-04-15T04:08:31;7.25;;;5.03;;
43114;SDS011;28727;50.068;14.452;2023-04-15T04:11:03;7.45;;;5.43;;
43114;SDS011;28727;50.068;14.452;2023-04-15T04:13:35;9.25;;;6.88;;
43114;SDS011;28727;50.068;14.452;2023-04-15T04:16:07;7.78;;;6.05;;
43114;SDS011;28727;50.068;14.452;2023-04-15T04:18:38;8.77;;;5.65;;
43114;SDS011;28727;50.068;14.452;2023-04-15T04:21:10;8.48;;;5.18;;
43114;SDS011;28727;50.068;14.452;2023-04-15T04:23:42;6.57;;;5.35;;
43114;SDS011;28727;50.068;14.452;2023-04-15T04:26:14;4.57;;;3.20;;
43114;SDS011;28727;50.068;14.452;2023-04-15T04:28:46;6.03;;;3.53;;
43114;SDS011;28727;50.068;14.452;2023-04-15T04:31:18;5.53;;;4.30;;
43114;SDS011;28727;50.068;14.452;2023-04-15T04:33:49;6.60;;;4.57;;
43114;SDS011;28727;50.068;14.452;2023-04-15T04:36:21;6.68;;;4.38;;
43114;SDS011;28727;50.068;14.452;2023-04-15T04:38:53;7.25;;;3.90;;
43114;SDS011;28727;50.068;14.452;2023-04-15T04:41:25;5.35;;;3.60;;
43114;SDS011;28727;50.068;14.452;2023-04-15T04:43:57;5.25;;;3.90;;
43114;SDS011;28727;50.068;14.452;2023-04-15T04:46:28;5.55;;;4.00;;
43114;SDS011;28727;50.068;14.452;2023-04-15T04:49:00;5.32;;;3.65;;
43114;SDS011;28727;50.068;14.452;2023-04-15T04:51:32;4.53;;;3.83;;
43114;SDS011;28727;50.068;14.452;2023-04-15T04:54:04;6.60;;;3.83;;
43114;SDS011;28727;50.068;14.452;2023-04-15T04:56:36;6.15;;;4.32;;
43114;SDS011;28727;50.068;14.452;2023-04-15T04:59:10;5.90;;;4.50;;
43114;SDS011;28727;50.068;14.452;2023-04-15T05:01:41;4.43;;;3.60;;
43114;SDS011;28727;50.068;14.452;2023-04-15T05:04:15;5.40;;;3.83;;
43114;SDS011;28727;50.068;14.452;2023-04-15T05:06:47;6.40;;;3.75;;
43114;SDS011;28727;50.068;14.452;2023-04-15T05:09:19;5.25;;;3.90;;
43114;SDS011;28727;50.068;14.452;2023-04-15T05:11:51;5.22;;;3.78;;
43114;SDS011;28727;50.068;14.452;2023-04-15T05:14:22;5.00;;;3.88;;
43114;SDS011;28727;50.068;14.452;2023-04-15T05:16:54;6.95;;;3.45;;
43114;SDS011;28727;50.068;14.452;2023-04-15T05:19:26;5.25;;;3.88;;
43114;SDS011;28727;50.068;14.452;2023-04-15T05:21:58;4.90;;;3.80;;
43114;SDS011;28727;50.068;14.452;2023-04-15T05:24:32;5.32;;;3.58;;
43114;SDS011;28727;50.068;14.452;2023-04-15T05:27:06;5.15;;;3.97;;
43114;SDS011;28727;50.068;14.452;2023-04-15T05:29:40;5.55;;;3.92;;
43114;SDS011;28727;50.068;14.452;2023-04-15T05:32:12;5.07;;;3.42;;
43114;SDS011;28727;50.068;14.452;2023-04-15T05:34:43;4.60;;;3.55;;
43114;SDS011;28727;50.068;14.452;2023-04-15T05:37:15;4.88;;;3.72;;
43114;SDS011;28727;50.068;14.452;2023-04-15T05:39:47;4.90;;;3.85;;
43114;SDS011;28727;50.068;14.452;2023-04-15T05:42:19;4.78;;;3.47;;
43114;SDS011;28727;50.068;14.452;2023-04-15T05:44:51;4.20;;;3.40;;
43114;SDS011;28727;50.068;14.452;2023-04-15T05:47:22;4.32;;;3.63;;
43114;SDS011;28727;50.068;14.452;2023-04-15T05:49:54;4.30;;;3.15;;
43114;SDS011;28727;50.068;14.452;2023-04-15T05:52:26;3.97;;;2.90;;
43114;SDS011;28727;50.068;14.452;2023-04-15T05:54:58;3.88;;;2.78;;
43114;SDS011;28727;50.068;14.452;2023-04-15T05:57:30;3.67;;;2.70;;
43114;SDS011;28727;50.068;14.452;2023-04-15T06:00:02;3.20;;;2.58;;
43114;SDS011;28727;50.068;14.452;2023-04-15T06:02:39;3.90;;;2.60;;
43114;SDS011;28727;50.068;14.452;2023-04-15T06:05:12;2.90;;;2.55;;
43114;SDS011;28727;50.068;14.452;2023-04-15T06:07:44;4.03;;;2.63;;
43114;SDS011;28727;50.068;14.452;2023-04-15T06:12:51;3.10;;;2.60;;
43114;SDS011;28727;50.068;14.452;2023-04-15T06:15:23;3.55;;;2.42;;
43114;SDS011;28727;50.068;14.452;2023-04-15T06:17:55;3.33;;;2.20;;
43114;SDS011;28727;50.068;14.452;2023-04-15T06:20:27;3.08;;;2.38;;
43114;SDS011;28727;50.068;14.452;2023-04-15T06:22:59;6.45;;;2.33;;
43114;SDS011;28727;50.068;14.452;2023-04-15T06:25:31;3.08;;;2.03;;
43114;SDS011;28727;50.068;14.452;2023-04-15T06:28:03;3.72;;;2.47;;
43114;SDS011;28727;50.068;14.452;2023-04-15T06:30:35;3.08;;;2.28;;
43114;SDS011;28727;50.068;14.452;2023-04-15T06:33:07;3.92;;;2.05;;
43114;SDS011;28727;50.068;14.452;2023-04-15T06:35:38;3.35;;;2.08;;
43114;SDS011;28727;50.068;14.452;2023-04-15T06:38:10;2.67;;;2.20;;
43114;SDS011;28727;50.068;14.452;2023-04-15T06:40:42;4.10;;;2.08;;
43114;SDS011;28727;50.068;14.452;2023-04-15T06:43:14;3.20;;;2.13;;
43114;SDS011;28727;50.068;14.452;2023-04-15T06:45:46;5.75;;;2.40;;
43114;SDS011;28727;50.068;14.452;2023-04-15T06:48:17;2.80;;;2.00;;
43114;SDS011;28727;50.068;14.452;2023-04-15T06:50:49;3.75;;;1.98;;
43114;SDS011;28727;50.068;14.452;2023-04-15T06:53:21;2.20;;;1.90;;
43114;SDS011;28727;50.068;14.452;2023-04-15T06:55:53;2.17;;;1.65;;
43114;SDS011;28727;50.068;14.452;2023-04-15T06:58:25;1.50;;;1.30;;
43114;SDS011;28727;50.068;14.452;2023-04-15T07:00:57;2.28;;;1.30;;
43114;SDS011;28727;50.068;14.452;2023-04-15T07:03:28;1.10;;;0.90;;
43114;SDS011;28727;50.068;14.452;2023-04-15T07:06:02;0.88;;;0.75;;
43114;SDS011;28727;50.068;14.452;2023-04-15T07:08:37;0.43;;;0.40;;
43114;SDS011;28727;50.068;14.452;2023-04-15T07:11:09;0.65;;;0.63;;
43114;SDS011;28727;50.068;14.452;2023-04-15T07:13:41;0.55;;;0.55;;
43114;SDS011;28727;50.068;14.452;2023-04-15T07:16:12;0.63;;;0.52;;
43114;SDS011;28727;50.068;14.452;2023-04-15T07:18:44;1.08;;;0.70;;
43114;SDS011;28727;50.068;14.452;2023-04-15T07:21:16;0.80;;;0.77;;
43114;SDS011;28727;50.068;14.452;2023-04-15T07:23:48;0.98;;;0.70;;
43114;SDS011;28727;50.068;14.452;2023-04-15T07:26:20;1.27;;;0.68;;
43114;SDS011;28727;50.068;14.452;2023-04-15T07:28:51;1.25;;;0.60;;
43114;SDS011;28727;50.068;14.452;2023-04-15T07:31:23;0.75;;;0.60;;
43114;SDS011;28727;50.068;14.452;2023-04-15T07:33:55;0.98;;;0.60;;
43114;SDS011;28727;50.068;14.452;2023-04-15T07:36:29;0.98;;;0.60;;
43114;SDS011;28727;50.068;14.452;2023-04-15T07:39:01;1.15;;;0.70;;
43114;SDS011;28727;50.068;14.452;2023-04-15T07:41:34;1.23;;;0.90;;
43114;SDS011;28727;50.068;14.452;2023-04-15T07:44:06;1.58;;;0.80;;
43114;SDS011;28727;50.068;14.452;2023-04-15T07:46:38;1.13;;;0.80;;
43114;SDS011;28727;50.068;14.452;2023-04-15T07:49:10;1.45;;;1.20;;
43114;SDS011;28727;50.068;14.452;2023-04-15T07:51:42;1.60;;;1.02;;
43114;SDS011;28727;50.068;14.452;2023-04-15T07:54:14;1.40;;;0.90;;
43114;SDS011;28727;50.068;14.452;2023-04-15T07:56:46;2.15;;;1.00;;
43114;SDS011;28727;50.068;14.452;2023-04-15T07:59:18;0.82;;;0.73;;
43114;SDS011;28727;50.068;14.452;2023-04-15T08:01:50;0.93;;;0.80;;
43114;SDS011;28727;50.068;14.452;2023-04-15T08:04:22;1.00;;;0.60;;
43114;SDS011;28727;50.068;14.452;2023-04-15T08:06:54;1.50;;;0.60;;
43114;SDS011;28727;50.068;14.452;2023-04-15T08:09:26;0.85;;;0.75;;
43114;SDS011;28727;50.068;14.452;2023-04-15T08:11:57;0.88;;;0.80;;
43114;SDS011;28727;50.068;14.452;2023-04-15T08:14:29;1.30;;;0.90;;
43114;SDS011;28727;50.068;14.452;2023-04-15T08:17:01;1.00;;;0.75;;
43114;SDS011;28727;50.068;14.452;2023-04-15T08:19:33;1.10;;;0.90;;
43114;SDS011;28727;50.068;14.452;2023-04-15T08:22:04;1.33;;;0.90;;
43114;SDS011;28727;50.068;14.452;2023-04-15T08:24:45;1.98;;;0.90;;
43114;SDS011;28727;50.068;14.452;2023-04-15T08:27:17;1.00;;;0.90;;
43114;SDS011;28727;50.068;14.452;2023-04-15T08:29:49;1.05;;;0.98;;
43114;SDS011;28727;50.068;14.452;2023-04-15T08:32:21;1.42;;;0.95;;
43114;SDS011;28727;50.068;14.452;2023-04-15T08:34:53;1.35;;;1.20;;
43114;SDS011;28727;50.068;14.452;2023-04-15T08:37:25;1.20;;;1.10;;
43114;SDS011;28727;50.068;14.452;2023-04-15T08:39:57;1.58;;;1.10;;
43114;SDS011;28727;50.068;14.452;2023-04-15T08:42:35;1.58;;;1.25;;
43114;SDS011;28727;50.068;14.452;2023-04-15T08:45:13;2.08;;;1.58;;
43114;SDS011;28727;50.068;14.452;2023-04-15T08:47:46;1.10;;;1.00;;
43114;SDS011;28727;50.068;14.452;2023-04-15T08:50:25;2.40;;;1.40;;
43114;SDS011;28727;50.068;14.452;2023-04-15T08:53:00;1.50;;;1.25;;
43114;SDS011;28727;50.068;14.452;2023-04-15T08:55:33;4.93;;;2.03;;
43114;SDS011;28727;50.068;14.452;2023-04-15T08:58:07;1.83;;;1.30;;
43114;SDS011;28727;50.068;14.452;2023-04-15T09:00:40;1.52;;;1.33;;
43114;SDS011;28727;50.068;14.452;2023-04-15T09:03:12;1.42;;;1.33;;
43114;SDS011;28727;50.068;14.452;2023-04-15T09:05:44;2.03;;;1.40;;
43114;SDS011;28727;50.068;14.452;2023-04-15T09:08:17;2.28;;;1.67;;
43114;SDS011;28727;50.068;14.452;2023-04-15T09:10:49;2.83;;;1.60;;
43114;SDS011;28727;50.068;14.452;2023-04-15T09:13:21;2.42;;;1.30;;
43114;SDS011;28727;50.068;14.452;2023-04-15T09:15:53;1.52;;;1.20;;
43114;SDS011;28727;50.068;14.452;2023-04-15T09:18:27;1.20;;;1.10;;
43114;SDS011;28727;50.068;14.452;2023-04-15T09:21:07;2.65;;;1.30;;
43114;SDS011;28727;50.068;14.452;2023-04-15T09:23:58;3.45;;;1.20;;
43114;SDS011;28727;50.068;14.452;2023-04-15T09:26:35;2.33;;;1.60;;
43114;SDS011;28727;50.068;14.452;2023-04-15T09:29:09;3.42;;;1.60;;
43114;SDS011;28727;50.068;14.452;2023-04-15T09:31:43;2.33;;;1.67;;
43114;SDS011;28727;50.068;14.452;2023-04-15T09:34:15;2.95;;;1.95;;
43114;SDS011;28727;50.068;14.452;2023-04-15T09:36:52;2.88;;;2.05;;
43114;SDS011;28727;50.068;14.452;2023-04-15T09:39:25;2.78;;;1.95;;
43114;SDS011;28727;50.068;14.452;2023-04-15T09:42:06;2.45;;;1.88;;
43114;SDS011;28727;50.068;14.452;2023-04-15T09:44:38;2.53;;;1.85;;
43114;SDS011;28727;50.068;14.452;2023-04-15T09:47:28;3.78;;;2.05;;
43114;SDS011;28727;50.068;14.452;2023-04-15T09:50:00;2.60;;;2.03;;
43114;SDS011;28727;50.068;14.452;2023-04-15T09:52:32;2.42;;;1.85;;
43114;SDS011;28727;50.068;14.452;2023-04-15T09:55:04;2.63;;;2.15;;
43114;SDS011;28727;50.068;14.452;2023-04-15T09:57:37;2.90;;;2.20;;
43114;SDS011;28727;50.068;14.452;2023-04-15T10:00:11;5.35;;;3.78;;
43114;SDS011;28727;50.068;14.452;2023-04-15T10:02:44;2.75;;;2.30;;
43114;SDS011;28727;50.068;14.452;2023-04-15T10:05:18;4.38;;;2.72;;
43114;SDS011;28727;50.068;14.452;2023-04-15T10:07:50;2.75;;;2.00;;
43114;SDS011;28727;50.068;14.452;2023-04-15T10:10:22;3.33;;;2.20;;
43114;SDS011;28727;50.068;14.452;2023-04-15T10:12:57;2.75;;;2.10;;
43114;SDS011;28727;50.068;14.452;2023-04-15T10:15:29;2.30;;;1.70;;
43114;SDS011;28727;50.068;14.452;2023-04-15T10:18:02;2.67;;;2.10;;
43114;SDS011;28727;50.068;14.452;2023-04-15T10:20:38;4.25;;;1.95;;
43114;SDS011;28727;50.068;14.452;2023-04-15T10:23:11;2.28;;;1.83;;
43114;SDS011;28727;50.068;14.452;2023-04-15T10:25:44;2.20;;;1.92;;
43114;SDS011;28727;50.068;14.452;2023-04-15T10:28:17;4.00;;;1.90;;
43114;SDS011;28727;50.068;14.452;2023-04-15T10:30:51;2.25;;;2.00;;
43114;SDS011;28727;50.068;14.452;2023-04-15T10:33:24;2.95;;;1.67;;
43114;SDS011;28727;50.068;14.452;2023-04-15T10:35:57;1.90;;;1.42;;
43114;SDS011;28727;50.068;14.452;2023-04-15T10:41:13;2.65;;;1.90;;
43114;SDS011;28727;50.068;14.452;2023-04-15T10:43:54;2.60;;;1.70;;
43114;SDS011;28727;50.068;14.452;2023-04-15T10:46:43;3.67;;;2.70;;
43114;SDS011;28727;50.068;14.452;2023-04-15T10:49:16;3.25;;;2.53;;
43114;SDS011;28727;50.068;14.452;2023-04-15T10:51:57;4.78;;;2.53;;
43114;SDS011;28727;50.068;14.452;2023-04-15T10:54:30;4.57;;;2.47;;
43114;SDS011;28727;50.068;14.452;2023-04-15T10:59:35;3.15;;;1.90;;
43114;SDS011;28727;50.068;14.452;2023-04-15T11:02:11;5.00;;;2.80;;
43114;SDS011;28727;50.068;14.452;2023-04-15T11:13:15;4.65;;;2.78;;
43114;SDS011;28727;50.068;14.452;2023-04-15T11:15:48;3.33;;;2.15;;
43114;SDS011;28727;50.068;14.452;2023-04-15T11:18:21;3.75;;;2.28;;
43114;SDS011;28727;50.068;14.452;2023-04-15T11:20:55;4.07;;;2.50;;
43114;SDS011;28727;50.068;14.452;2023-04-15T11:26:03;2.83;;;1.98;;
43114;SDS011;28727;50.068;14.452;2023-04-15T11:28:40;5.07;;;3.00;;
43114;SDS011;28727;50.068;14.452;2023-04-15T11:31:14;3.38;;;2.22;;
43114;SDS011;28727;50.068;14.452;2023-04-15T11:33:55;2.40;;;1.70;;
43114;SDS011;28727;50.068;14.452;2023-04-15T11:36:29;3.03;;;2.03;;
43114;SDS011;28727;50.068;14.452;2023-04-15T11:39:05;3.63;;;2.08;;
43114;SDS011;28727;50.068;14.452;2023-04-15T11:41:37;2.70;;;2.00;;
43114;SDS011;28727;50.068;14.452;2023-04-15T11:44:16;2.83;;;1.70;;
43114;SDS011;28727;50.068;14.452;2023-04-15T11:46:49;2.75;;;1.90;;
43114;SDS011;28727;50.068;14.452;2023-04-15T11:49:30;2.00;;;1.60;;
43114;SDS011;28727;50.068;14.452;2023-04-15T11:52:09;2.70;;;1.83;;
43114;SDS011;28727;50.068;14.452;2023-04-15T11:54:41;3.13;;;1.70;;
43114;SDS011;28727;50.068;14.452;2023-04-15T11:57:13;3.20;;;2.03;;
43114;SDS011;28727;50.068;14.452;2023-04-15T11:59:45;2.65;;;1.85;;
43114;SDS011;28727;50.068;14.452;2023-04-15T12:02:17;3.80;;;1.77;;
43114;SDS011;28727;50.068;14.452;2023-04-15T12:04:49;3.00;;;1.88;;
43114;SDS011;28727;50.068;14.452;2023-04-15T12:07:24;3.10;;;2.20;;
43114;SDS011;28727;50.068;14.452;2023-04-15T12:09:56;2.65;;;1.80;;
43114;SDS011;28727;50.068;14.452;2023-04-15T12:12:28;3.60;;;2.33;;
43114;SDS011;28727;50.068;14.452;2023-04-15T12:15:01;3.70;;;2.55;;
43114;SDS011;28727;50.068;14.452;2023-04-15T12:17:33;2.92;;;2.28;;
43114;SDS011;28727;50.068;14.452;2023-04-15T12:20:25;4.28;;;2.05;;
43114;SDS011;28727;50.068;14.452;2023-04-15T12:23:06;3.53;;;2.30;;
43114;SDS011;28727;50.068;14.452;2023-04-15T12:25:37;3.38;;;2.10;;
43114;SDS011;28727;50.068;14.452;2023-04-15T12:28:10;3.80;;;2.40;;
43114;SDS011;28727;50.068;14.452;2023-04-15T12:30:49;3.45;;;2.15;;
43114;SDS011;28727;50.068;14.452;2023-04-15T12:33:23;3.15;;;2.22;;
43114;SDS011;28727;50.068;14.452;2023-04-15T12:36:03;3.95;;;2.45;;
43114;SDS011;28727;50.068;14.452;2023-04-15T12:38:38;3.95;;;2.80;;
43114;SDS011;28727;50.068;14.452;2023-04-15T12:41:10;4.32;;;3.03;;
43114;SDS011;28727;50.068;14.452;2023-04-15T12:43:45;3.08;;;2.08;;
43114;SDS011;28727;50.068;14.452;2023-04-15T12:46:17;2.15;;;1.60;;
43114;SDS011;28727;50.068;14.452;2023-04-15T12:48:49;5.22;;;1.90;;
43114;SDS011;28727;50.068;14.452;2023-04-15T12:51:23;2.67;;;1.88;;
43114;SDS011;28727;50.068;14.452;2023-04-15T12:53:55;3.53;;;1.60;;
43114;SDS011;28727;50.068;14.452;2023-04-15T12:56:26;2.72;;;1.85;;
43114;SDS011;28727;50.068;14.452;2023-04-15T12:58:58;4.55;;;1.60;;
43114;SDS011;28727;50.068;14.452;2023-04-15T13:01:30;2.70;;;1.77;;
43114;SDS011;28727;50.068;14.452;2023-04-15T13:04:02;2.72;;;1.55;;
43114;SDS011;28727;50.068;14.452;2023-04-15T13:06:36;3.30;;;1.60;;
43114;SDS011;28727;50.068;14.452;2023-04-15T13:09:08;1.90;;;1.60;;
43114;SDS011;28727;50.068;14.452;2023-04-15T13:11:40;1.80;;;1.30;;
43114;SDS011;28727;50.068;14.452;2023-04-15T13:14:12;4.60;;;1.60;;
43114;SDS011;28727;50.068;14.452;2023-04-15T13:16:44;2.33;;;1.50;;
43114;SDS011;28727;50.068;14.452;2023-04-15T13:19:16;2.10;;;1.60;;
43114;SDS011;28727;50.068;14.452;2023-04-15T13:21:47;2.85;;;1.85;;
43114;SDS011;28727;50.068;14.452;2023-04-15T13:24:20;2.35;;;1.65;;
43114;SDS011;28727;50.068;14.452;2023-04-15T13:26:52;2.97;;;1.50;;
43114;SDS011;28727;50.068;14.452;2023-04-15T13:29:24;2.25;;;1.60;;
43114;SDS011;28727;50.068;14.452;2023-04-15T13:31:56;2.53;;;1.58;;
43114;SDS011;28727;50.068;14.452;2023-04-15T13:34:28;2.28;;;1.80;;
43114;SDS011;28727;50.068;14.452;2023-04-15T13:37:06;2.80;;;1.80;;
43114;SDS011;28727;50.068;14.452;2023-04-15T13:39:38;3.55;;;1.90;;
43114;SDS011;28727;50.068;14.452;2023-04-15T13:42:10;2.95;;;2.00;;
43114;SDS011;28727;50.068;14.452;2023-04-15T13:44:42;2.30;;;1.60;;
43114;SDS011;28727;50.068;14.452;2023-04-15T13:47:13;5.45;;;2.10;;
43114;SDS011;28727;50.068;14.452;2023-04-15T13:49:46;2.60;;;1.92;;
43114;SDS011;28727;50.068;14.452;2023-04-15T13:52:18;2.65;;;2.03;;
43114;SDS011;28727;50.068;14.452;2023-04-15T13:54:49;2.08;;;1.70;;
43114;SDS011;28727;50.068;14.452;2023-04-15T13:57:42;3.55;;;1.60;;
43114;SDS011;28727;50.068;14.452;2023-04-15T14:00:14;2.80;;;1.83;;
43114;SDS011;28727;50.068;14.452;2023-04-15T14:02:45;2.53;;;1.90;;
43114;SDS011;28727;50.068;14.452;2023-04-15T14:05:17;2.42;;;1.73;;
43114;SDS011;28727;50.068;14.452;2023-04-15T14:07:49;3.95;;;1.70;;
43114;SDS011;28727;50.068;14.452;2023-04-15T14:10:23;2.33;;;1.70;;
43114;SDS011;28727;50.068;14.452;2023-04-15T14:12:57;3.75;;;2.03;;
43114;SDS011;28727;50.068;14.452;2023-04-15T14:15:29;2.72;;;1.70;;
43114;SDS011;28727;50.068;14.452;2023-04-15T14:18:01;2.70;;;1.70;;
43114;SDS011;28727;50.068;14.452;2023-04-15T14:20:33;2.50;;;1.65;;
43114;SDS011;28727;50.068;14.452;2023-04-15T14:23:04;4.63;;;2.25;;
43114;SDS011;28727;50.068;14.452;2023-04-15T14:25:36;2.45;;;1.90;;
43114;SDS011;28727;50.068;14.452;2023-04-15T14:28:09;5.00;;;1.98;;
43114;SDS011;28727;50.068;14.452;2023-04-15T14:30:41;2.30;;;1.92;;
43114;SDS011;28727;50.068;14.452;2023-04-15T14:33:13;2.50;;;1.92;;
43114;SDS011;28727;50.068;14.452;2023-04-15T14:35:45;3.92;;;1.80;;
43114;SDS011;28727;50.068;14.452;2023-04-15T14:40:53;2.65;;;1.75;;
43114;SDS011;28727;50.068;14.452;2023-04-15T14:43:24;2.30;;;1.63;;
43114;SDS011;28727;50.068;14.452;2023-04-15T14:45:56;2.95;;;1.70;;
43114;SDS011;28727;50.068;14.452;2023-04-15T14:48:28;2.55;;;1.60;;
43114;SDS011;28727;50.068;14.452;2023-04-15T14:51:01;2.40;;;1.93;;
43114;SDS011;28727;50.068;14.452;2023-04-15T14:53:36;1.80;;;1.40;;
43114;SDS011;28727;50.068;14.452;2023-04-15T14:58:40;2.78;;;1.60;;
43114;SDS011;28727;50.068;14.452;2023-04-15T15:01:12;2.13;;;1.50;;
43114;SDS011;28727;50.068;14.452;2023-04-15T15:03:43;2.38;;;1.63;;
43114;SDS011;28727;50.068;14.452;2023-04-15T15:06:16;3.15;;;1.60;;
43114;SDS011;28727;50.068;14.452;2023-04-15T15:08:48;5.07;;;1.50;;
43114;SDS011;28727;50.068;14.452;2023-04-15T15:11:20;3.90;;;1.83;;
43114;SDS011;28727;50.068;14.452;2023-04-15T15:13:52;2.83;;;1.40;;
43114;SDS011;28727;50.068;14.452;2023-04-15T15:16:23;2.08;;;1.50;;
43114;SDS011;28727;50.068;14.452;2023-04-15T15:18:56;2.70;;;1.30;;
43114;SDS011;28727;50.068;14.452;2023-04-15T15:21:27;2.95;;;1.67;;
43114;SDS011;28727;50.068;14.452;2023-04-15T15:23:59;3.33;;;1.60;;
43114;SDS011;28727;50.068;14.452;2023-04-15T15:26:31;2.47;;;1.55;;
43114;SDS011;28727;50.068;14.452;2023-04-15T15:29:03;2.10;;;1.50;;
43114;SDS011;28727;50.068;14.452;2023-04-15T15:31:35;3.00;;;1.60;;